Time;durP1;ratioP1;P1;durP2;ratioP2;P2;SDS_P1;SDS_P2;PMS_P1;PMS_P2;Temp;Humidity;BMP_temperature;BMP_pressure;BME280_temperature;BME280_humidity;BME280_pressure;Samples;Min_cycle;Max_cycle;Signal;HPM_P1;HPM_P2
2023/08/31 00:00:09;;;;;;;1756.53;999.90;;;11.40;99.90;;;;;;5089775;28;20066;-85
2023/08/31 00:02:35;;;;;;;1723.35;999.90;;;11.30;99.90;;;;;;5062472;28;20048;-85
2023/08/31 00:05:01;;;;;;;1725.80;999.90;;;11.30;99.90;;;;;;5090403;28;20101;-84
2023/08/31 00:07:27;;;;;;;1617.78;999.90;;;11.30;99.90;;;;;;5069906;28;20051;-85
2023/08/31 00:09:53;;;;;;;1737.28;999.90;;;11.30;99.90;;;;;;5067083;28;20040;-85
2023/08/31 00:12:19;;;;;;;1588.63;999.90;;;11.30;99.90;;;;;;5078884;28;20168;-85
2023/08/31 00:14:44;;;;;;;1715.72;999.90;;;11.30;99.90;;;;;;5084103;28;20444;-85
2023/08/31 00:17:10;;;;;;;1724.47;999.90;;;11.30;99.90;;;;;;5062987;28;20066;-85
2023/08/31 00:19:36;;;;;;;1556.55;999.90;;;11.30;99.90;;;;;;5085069;28;20043;-86
2023/08/31 00:22:02;;;;;;;1722.05;999.90;;;11.30;99.90;;;;;;5086617;28;20235;-85
2023/08/31 00:24:31;;;;;;;1747.43;999.90;;;11.30;99.90;;;;;;5085504;28;20465;-85
2023/08/31 00:26:57;;;;;;;1729.95;999.90;;;11.30;99.90;;;;;;5076809;28;20086;-86
2023/08/31 00:29:25;;;;;;;1737.80;999.90;;;11.30;99.90;;;;;;5087887;28;20071;-85
2023/08/31 00:31:53;;;;;;;1726.32;999.90;;;11.30;99.90;;;;;;5096132;28;20084;-85
2023/08/31 00:34:19;;;;;;;1546.57;999.90;;;11.40;99.90;;;;;;5086339;28;20414;-85
2023/08/31 00:36:45;;;;;;;1722.38;999.90;;;11.40;99.90;;;;;;5094970;28;20085;-86
2023/08/31 00:39:11;;;;;;;1547.03;999.90;;;11.40;99.90;;;;;;5086209;28;20044;-86
2023/08/31 00:41:40;;;;;;;1557.60;999.90;;;11.30;99.90;;;;;;5088906;28;20132;-86
2023/08/31 00:44:06;;;;;;;1540.45;999.90;;;11.20;99.90;;;;;;5071149;28;20150;-85
2023/08/31 00:46:32;;;;;;;1704.35;999.90;;;11.30;99.90;;;;;;5089270;28;20076;-85
2023/08/31 00:48:58;;;;;;;1577.03;999.90;;;11.30;99.90;;;;;;5087987;28;20594;-85
2023/08/31 00:51:24;;;;;;;1673.50;999.90;;;11.20;99.90;;;;;;5088438;28;20359;-85
2023/08/31 00:53:54;;;;;;;1629.07;999.90;;;11.20;99.90;;;;;;5104505;28;20047;-85
2023/08/31 00:56:20;;;;;;;1651.38;999.90;;;11.20;99.90;;;;;;5105407;28;20043;-85
2023/08/31 00:58:46;;;;;;;1532.47;999.90;;;11.20;99.90;;;;;;5070396;28;20474;-86
2023/08/31 01:01:27;;;;;;;1560.95;999.90;;;11.20;99.90;;;;;;5071908;28;20134;-85
2023/08/31 01:04:22;;;;;;;1671.53;999.90;;;11.20;99.90;;;;;;5099267;28;20567;-85
2023/08/31 01:07:13;;;;;;;1531.90;999.90;;;11.20;99.90;;;;;;5086571;28;20043;-85
2023/08/31 01:09:51;;;;;;;1670.35;999.90;;;11.10;99.90;;;;;;5068442;28;20071;-85
2023/08/31 01:12:22;;;;;;;1704.28;999.90;;;11.10;99.90;;;;;;5067925;28;20138;-85
2023/08/31 01:14:59;;;;;;;1700.57;999.90;;;11.10;99.90;;;;;;5085381;28;20140;-84
2023/08/31 01:17:29;;;;;;;1573.78;999.90;;;11.10;99.90;;;;;;5081545;28;20062;-85
2023/08/31 01:19:57;;;;;;;1586.70;999.90;;;11.10;99.90;;;;;;5087148;28;20043;-84
2023/08/31 01:22:37;;;;;;;1570.28;999.90;;;11.10;99.90;;;;;;5072868;28;20066;-85
2023/08/31 01:25:05;;;;;;;1734.22;999.90;;;11.00;99.90;;;;;;5072648;28;20048;-84
2023/08/31 01:27:34;;;;;;;1737.03;999.90;;;11.00;99.90;;;;;;5089430;28;20142;-85
2023/08/31 01:30:00;;;;;;;1686.55;999.90;;;11.00;99.90;;;;;;5091721;28;20544;-84
2023/08/31 01:32:26;;;;;;;1647.20;999.90;;;11.00;99.90;;;;;;5083210;28;20031;-85
2023/08/31 01:34:53;;;;;;;1796.25;999.90;;;10.90;99.90;;;;;;5072406;28;20113;-85
2023/08/31 01:37:30;;;;;;;1644.82;999.90;;;10.90;99.90;;;;;;5089472;28;20047;-86
2023/08/31 01:40:04;;;;;;;1748.25;999.90;;;10.90;99.90;;;;;;5081112;28;20077;-85
2023/08/31 01:42:31;;;;;;;1877.53;999.90;;;10.80;99.90;;;;;;5074133;28;20051;-85
2023/08/31 01:44:58;;;;;;;1725.45;999.90;;;10.80;99.90;;;;;;5066476;28;20039;-85
2023/08/31 01:47:26;;;;;;;1834.22;999.90;;;10.80;99.90;;;;;;5069546;28;20044;-85
2023/08/31 01:49:52;;;;;;;1741.70;999.90;;;10.80;99.90;;;;;;5080730;28;20518;-85
2023/08/31 01:52:18;;;;;;;1781.50;999.90;;;10.70;99.90;;;;;;5089663;28;20067;-85
2023/08/31 01:54:44;;;;;;;1757.05;999.90;;;10.70;99.90;;;;;;5065650;28;20132;-85
2023/08/31 01:57:10;;;;;;;1842.90;999.90;;;10.80;99.90;;;;;;5074625;28;20042;-85
2023/08/31 01:59:35;;;;;;;1878.03;999.90;;;10.80;99.90;;;;;;5105517;28;20075;-85
2023/08/31 02:02:01;;;;;;;1853.05;999.90;;;10.80;99.90;;;;;;5070074;28;20043;-85
2023/08/31 02:04:27;;;;;;;1787.53;999.90;;;10.70;99.90;;;;;;5087983;28;20147;-85
2023/08/31 02:06:53;;;;;;;1808.10;999.90;;;10.70;99.90;;;;;;5072657;28;20130;-85
2023/08/31 02:09:20;;;;;;;1830.85;999.90;;;10.70;99.90;;;;;;5073116;28;20123;-85
2023/08/31 02:11:45;;;;;;;1807.90;999.90;;;10.60;99.90;;;;;;5073827;28;20108;-85
2023/08/31 02:14:11;;;;;;;1682.78;999.90;;;10.60;99.90;;;;;;5107630;28;20490;-85
2023/08/31 02:16:37;;;;;;;1696.55;999.90;;;10.60;99.90;;;;;;5092897;28;20040;-85
2023/08/31 02:19:02;;;;;;;1655.80;999.90;;;10.60;99.90;;;;;;5091665;28;20098;-84
2023/08/31 02:21:28;;;;;;;1832.20;999.90;;;10.60;99.90;;;;;;5069674;28;20509;-84
2023/08/31 02:23:54;;;;;;;1790.65;999.90;;;10.60;99.90;;;;;;5073331;28;20573;-84
2023/08/31 02:26:21;;;;;;;1782.63;999.90;;;10.60;99.90;;;;;;5101149;28;20109;-84
2023/08/31 02:28:47;;;;;;;1714.13;999.90;;;10.60;99.90;;;;;;5065470;28;20097;-84
2023/08/31 02:31:13;;;;;;;1768.53;999.90;;;10.60;99.90;;;;;;5067781;28;20071;-85
2023/08/31 02:33:39;;;;;;;1782.32;999.90;;;10.60;99.90;;;;;;5065944;28;20067;-85
2023/08/31 02:36:05;;;;;;;1696.22;999.90;;;10.60;99.90;;;;;;5092208;28;20036;-84
2023/08/31 02:38:32;;;;;;;1669.20;999.90;;;10.60;99.90;;;;;;5095206;28;20043;-85
2023/08/31 02:40:57;;;;;;;1695.68;999.90;;;10.60;99.90;;;;;;5088479;28;20364;-85
2023/08/31 02:43:24;;;;;;;1686.93;999.90;;;10.50;99.90;;;;;;5090025;28;20079;-85
2023/08/31 02:45:50;;;;;;;1746.20;999.90;;;10.50;99.90;;;;;;5072272;28;20050;-85
2023/08/31 02:48:15;;;;;;;1728.88;999.90;;;10.50;99.90;;;;;;5106185;28;20044;-85
2023/08/31 02:50:41;;;;;;;1775.32;999.90;;;10.50;99.90;;;;;;5104679;28;20184;-85
2023/08/31 02:53:07;;;;;;;1912.50;999.90;;;10.60;99.90;;;;;;5077305;28;20109;-85
2023/08/31 02:55:33;;;;;;;1832.63;999.90;;;10.60;99.90;;;;;;5088971;28;20039;-85
2023/08/31 02:57:59;;;;;;;1724.32;999.90;;;10.60;99.90;;;;;;5072850;28;20047;-85
2023/08/31 03:00:26;;;;;;;1746.97;999.90;;;10.60;99.90;;;;;;5088481;28;20031;-85
2023/08/31 03:02:52;;;;;;;1742.72;999.90;;;10.60;99.90;;;;;;5077738;28;20079;-85
2023/08/31 03:05:19;;;;;;;1825.68;999.90;;;10.50;99.90;;;;;;5083056;28;20036;-85
2023/08/31 03:07:45;;;;;;;1696.95;999.90;;;10.60;99.90;;;;;;5088475;28;20036;-85
2023/08/31 03:10:11;;;;;;;1783.70;999.90;;;10.50;99.90;;;;;;5072649;28;20047;-85
2023/08/31 03:12:37;;;;;;;1735.75;999.90;;;10.60;99.90;;;;;;5090050;28;20040;-85
2023/08/31 03:15:05;;;;;;;1665.10;999.90;;;10.60;99.90;;;;;;5073300;28;20406;-84
2023/08/31 03:17:31;;;;;;;1548.28;999.90;;;10.60;99.90;;;;;;5095057;28;20088;-85
2023/08/31 03:19:57;;;;;;;1676.93;999.90;;;10.60;99.90;;;;;;5071812;28;20044;-84
2023/08/31 03:22:23;;;;;;;1583.28;999.90;;;10.80;99.90;;;;;;5093984;28;20082;-85
2023/08/31 03:24:48;;;;;;;1680.38;999.90;;;10.60;99.90;;;;;;5088249;28;20051;-85
2023/08/31 03:27:15;;;;;;;1580.57;999.90;;;10.50;99.90;;;;;;5088337;28;20482;-85
2023/08/31 03:29:41;;;;;;;1551.15;999.90;;;10.60;99.90;;;;;;5071625;28;20054;-85
2023/08/31 03:32:07;;;;;;;1550.40;999.90;;;10.50;99.90;;;;;;5072413;28;20047;-85
2023/08/31 03:34:33;;;;;;;1664.05;999.90;;;10.50;99.90;;;;;;5067997;28;20094;-85
2023/08/31 03:36:59;;;;;;;1678.53;999.90;;;10.50;99.90;;;;;;5086385;28;20048;-85
2023/08/31 03:39:25;;;;;;;1697.20;999.90;;;10.50;99.90;;;;;;5085095;28;20130;-84
2023/08/31 03:41:51;;;;;;;1663.13;999.90;;;10.40;99.90;;;;;;5069276;28;20047;-85
2023/08/31 03:44:17;;;;;;;1687.80;999.90;;;10.50;99.90;;;;;;5067539;28;20506;-85
2023/08/31 03:46:43;;;;;;;1739.47;999.90;;;10.60;99.90;;;;;;5065777;28;20048;-85
2023/08/31 03:49:09;;;;;;;1789.95;999.90;;;10.50;99.90;;;;;;5086151;28;20048;-84
2023/08/31 03:51:34;;;;;;;1735.38;999.90;;;10.60;99.90;;;;;;5069682;28;20032;-85
2023/08/31 03:54:00;;;;;;;1681.85;999.90;;;10.40;99.90;;;;;;5062216;28;20049;-85
2023/08/31 03:56:26;;;;;;;1778.95;999.90;;;10.50;99.90;;;;;;5063303;28;20332;-85
2023/08/31 03:58:53;;;;;;;1654.00;999.90;;;10.50;99.90;;;;;;5069297;28;20055;-85
2023/08/31 04:01:18;;;;;;;1765.38;999.90;;;10.50;99.90;;;;;;5061845;28;20109;-86
2023/08/31 04:03:44;;;;;;;1742.10;999.90;;;10.50;99.90;;;;;;5068396;28;20039;-85
2023/08/31 04:06:10;;;;;;;1646.90;999.90;;;10.50;99.90;;;;;;5073207;28;20040;-85
2023/08/31 04:08:36;;;;;;;1767.88;999.90;;;10.50;99.90;;;;;;5085077;28;20457;-85
2023/08/31 04:11:02;;;;;;;1691.00;999.90;;;10.50;99.90;;;;;;5072724;28;20036;-85
2023/08/31 04:13:28;;;;;;;1786.22;999.90;;;10.50;99.90;;;;;;5069092;28;20075;-84
2023/08/31 04:15:54;;;;;;;1820.72;999.90;;;10.50;99.90;;;;;;5077446;28;20525;-85
2023/08/31 04:18:21;;;;;;;1770.90;999.90;;;10.50;99.90;;;;;;5086242;28;20549;-85
2023/08/31 04:20:50;;;;;;;1781.25;999.90;;;10.60;99.90;;;;;;5068730;28;20116;-85
2023/08/31 04:23:17;;;;;;;1897.63;999.90;;;10.60;99.90;;;;;;5068438;28;20046;-84
2023/08/31 04:25:43;;;;;;;1912.00;999.90;;;10.60;99.90;;;;;;5060804;28;20479;-84
2023/08/31 04:28:08;;;;;;;1738.22;999.90;;;10.60;99.90;;;;;;5067954;28;20078;-84
2023/08/31 04:30:34;;;;;;;1791.35;999.90;;;10.70;99.90;;;;;;5068998;28;20047;-84
2023/08/31 04:33:00;;;;;;;1847.18;999.90;;;10.70;99.90;;;;;;5057447;28;20564;-84
2023/08/31 04:35:26;;;;;;;1874.47;999.90;;;10.70;99.90;;;;;;5084786;28;20133;-84
2023/08/31 04:37:52;;;;;;;1831.55;999.90;;;10.70;99.90;;;;;;5064405;28;20059;-85
2023/08/31 04:40:18;;;;;;;1872.10;999.90;;;10.80;99.90;;;;;;5066101;28;20089;-85
2023/08/31 04:42:44;;;;;;;1799.75;999.90;;;10.70;99.90;;;;;;5046778;28;20407;-85
2023/08/31 04:45:11;;;;;;;1773.22;999.90;;;10.70;99.90;;;;;;5063975;28;20084;-85
2023/08/31 04:47:37;;;;;;;1922.18;999.90;;;10.70;99.90;;;;;;5067085;28;20076;-85
2023/08/31 04:50:03;;;;;;;1914.28;999.90;;;10.70;99.90;;;;;;5066180;28;20593;-85
2023/08/31 04:52:29;;;;;;;1821.22;999.90;;;10.70;99.90;;;;;;5084844;28;20043;-85
2023/08/31 04:54:54;;;;;;;1821.00;999.90;;;10.70;99.90;;;;;;5065507;28;20048;-85
2023/08/31 04:57:20;;;;;;;1839.45;999.90;;;10.70;99.90;;;;;;5048992;28;20286;-85
2023/08/31 04:59:46;;;;;;;1856.20;999.90;;;10.70;99.90;;;;;;5087704;28;20047;-85
2023/08/31 05:02:12;;;;;;;1855.55;999.90;;;10.70;99.90;;;;;;5055458;28;20495;-85
2023/08/31 05:04:38;;;;;;;1756.82;999.90;;;10.70;99.90;;;;;;5070308;28;20071;-85
2023/08/31 05:07:03;;;;;;;1774.60;999.90;;;10.70;99.90;;;;;;5056012;28;20047;-85
2023/08/31 05:09:32;;;;;;;1881.40;999.90;;;10.70;99.90;;;;;;5054607;28;20044;-85
2023/08/31 05:11:59;;;;;;;1821.63;999.90;;;10.70;99.90;;;;;;5054750;28;20040;-85
2023/08/31 05:14:25;;;;;;;1841.07;999.90;;;10.70;99.90;;;;;;5090519;28;20075;-85
2023/08/31 05:16:50;;;;;;;1862.57;999.90;;;10.80;99.90;;;;;;5055044;28;20083;-84
2023/08/31 05:19:16;;;;;;;1811.38;999.90;;;10.70;99.90;;;;;;5060568;28;20469;-85
2023/08/31 05:21:42;;;;;;;1816.18;999.90;;;10.70;99.90;;;;;;5089867;28;20039;-85
2023/08/31 05:24:07;;;;;;;1713.22;999.90;;;10.80;99.90;;;;;;5071112;28;20074;-85
2023/08/31 05:26:33;;;;;;;1777.28;999.90;;;10.80;99.90;;;;;;5054149;28;20039;-85
2023/08/31 05:28:59;;;;;;;1734.40;999.90;;;10.80;99.90;;;;;;5068500;28;20186;-85
2023/08/31 05:31:25;;;;;;;1701.80;999.90;;;10.70;99.90;;;;;;5070989;28;20036;-85
2023/08/31 05:33:50;;;;;;;1751.47;999.90;;;10.80;99.90;;;;;;5087270;28;20487;-85
2023/08/31 05:36:16;;;;;;;1748.20;999.90;;;10.90;99.90;;;;;;5076040;28;20078;-85
2023/08/31 05:38:42;;;;;;;1758.28;999.90;;;10.90;99.90;;;;;;5070840;28;20040;-84
2023/08/31 05:41:09;;;;;;;1717.10;999.90;;;10.90;99.90;;;;;;5061216;28;20130;-84
2023/08/31 05:43:36;;;;;;;1716.40;999.90;;;11.00;99.90;;;;;;5091503;28;20062;-84
2023/08/31 05:46:02;;;;;;;1708.25;999.90;;;11.00;99.90;;;;;;5077932;28;20079;-84
2023/08/31 05:48:28;;;;;;;1760.82;999.90;;;11.10;99.90;;;;;;5075348;28;20046;-84
2023/08/31 05:50:55;;;;;;;1769.60;999.90;;;11.20;99.90;;;;;;5074032;28;20092;-86
2023/08/31 05:53:21;;;;;;;1750.25;999.90;;;11.20;99.90;;;;;;5089847;28;20084;-85
2023/08/31 05:55:47;;;;;;;1661.47;999.90;;;11.30;99.90;;;;;;5090120;28;20047;-85
2023/08/31 05:58:13;;;;;;;1707.40;999.90;;;11.40;99.90;;;;;;5088591;28;20104;-84
2023/08/31 06:00:38;;;;;;;1629.60;999.90;;;11.50;99.90;;;;;;5090367;28;20036;-84
2023/08/31 06:03:05;;;;;;;1608.15;999.90;;;11.60;99.90;;;;;;5091194;28;20046;-84
2023/08/31 06:05:32;;;;;;;1636.80;999.90;;;11.70;99.90;;;;;;5078739;28;20042;-84
2023/08/31 06:07:58;;;;;;;1609.10;999.90;;;11.70;99.90;;;;;;5090045;28;20048;-84
2023/08/31 06:10:24;;;;;;;1628.43;999.90;;;11.80;99.90;;;;;;5091391;28;20043;-85
2023/08/31 06:12:50;;;;;;;1533.03;999.90;;;11.90;99.90;;;;;;5088342;28;20048;-84
2023/08/31 06:15:17;;;;;;;1597.53;999.90;;;12.00;99.90;;;;;;5076082;28;20532;-84
2023/08/31 06:17:43;;;;;;;1548.40;999.90;;;12.10;99.90;;;;;;5067566;28;20434;-85
2023/08/31 06:20:10;;;;;;;1576.70;999.90;;;12.20;99.90;;;;;;5072142;28;20040;-85
2023/08/31 06:22:35;;;;;;;1524.47;999.90;;;12.30;99.90;;;;;;5088944;28;20078;-83
2023/08/31 06:25:04;;;;;;;1508.00;999.90;;;12.40;99.90;;;;;;5066408;28;20204;-86
2023/08/31 06:27:29;;;;;;;1451.80;999.90;;;12.50;99.90;;;;;;5090801;28;20055;-90
2023/08/31 06:29:56;;;;;;;1503.07;999.90;;;12.70;99.90;;;;;;5074253;28;20463;-85
2023/08/31 06:32:23;;;;;;;1382.47;999.90;;;12.80;99.90;;;;;;5086788;28;20100;-84
2023/08/31 06:34:48;;;;;;;1263.07;996.47;;;12.90;99.90;;;;;;5094856;28;20071;-85
2023/08/31 06:37:14;;;;;;;1115.07;892.67;;;12.90;99.90;;;;;;5086197;28;20040;-85
2023/08/31 06:39:40;;;;;;;1010.53;843.63;;;13.00;99.90;;;;;;5059182;28;20042;-85
2023/08/31 06:42:07;;;;;;;1168.28;940.70;;;13.10;99.90;;;;;;5076718;28;20067;-85
2023/08/31 06:44:32;;;;;;;1100.60;887.35;;;13.20;99.90;;;;;;5087970;28;20085;-85
2023/08/31 06:46:58;;;;;;;1056.10;874.45;;;13.30;99.90;;;;;;5084610;28;20048;-85
2023/08/31 06:49:24;;;;;;;931.22;818.45;;;13.40;99.90;;;;;;5088959;28;20159;-85
2023/08/31 06:51:49;;;;;;;1021.90;873.22;;;13.50;99.90;;;;;;5070914;28;20047;-86
2023/08/31 06:54:15;;;;;;;877.33;783.30;;;13.50;99.90;;;;;;5079070;28;20047;-85
2023/08/31 06:56:42;;;;;;;958.75;838.60;;;13.60;99.90;;;;;;5071202;28;20031;-85
2023/08/31 06:59:07;;;;;;;948.55;844.15;;;13.70;99.90;;;;;;5087029;28;20089;-86
2023/08/31 07:01:33;;;;;;;906.92;807.92;;;13.70;99.90;;;;;;5089551;28;20044;-85
2023/08/31 07:03:59;;;;;;;990.88;847.80;;;13.80;99.90;;;;;;5088706;28;20130;-87
2023/08/31 07:06:24;;;;;;;994.10;869.08;;;14.00;99.90;;;;;;5082450;28;20039;-86
2023/08/31 07:08:50;;;;;;;886.80;792.47;;;14.10;99.90;;;;;;5080150;28;20040;-86
2023/08/31 07:11:17;;;;;;;893.40;797.55;;;14.20;99.90;;;;;;5087096;28;20055;-86
2023/08/31 07:13:43;;;;;;;1237.22;955.92;;;14.30;99.90;;;;;;5083182;28;20059;-85
2023/08/31 07:16:09;;;;;;;1299.88;998.45;;;14.40;99.90;;;;;;5076339;28;20035;-86
2023/08/31 07:18:36;;;;;;;1084.45;932.72;;;14.50;99.90;;;;;;5071655;28;20401;-86
2023/08/31 07:21:01;;;;;;;1242.53;995.65;;;14.60;99.90;;;;;;5090738;28;20461;-88
2023/08/31 07:23:27;;;;;;;1047.43;925.50;;;14.60;99.90;;;;;;5069519;28;20126;-86
2023/08/31 07:25:58;;;;;;;1141.45;977.28;;;14.70;99.90;;;;;;5079723;28;20414;-86
2023/08/31 07:28:23;;;;;;;1216.82;993.55;;;14.70;99.90;;;;;;5090841;28;20047;-86
2023/08/31 07:30:49;;;;;;;1045.43;929.75;;;14.80;99.90;;;;;;5080933;28;20039;-86
2023/08/31 07:33:15;;;;;;;1098.22;976.53;;;14.90;99.90;;;;;;5090807;28;20497;-87
2023/08/31 07:35:40;;;;;;;1034.63;921.80;;;14.90;99.90;;;;;;5071401;28;20060;-86
2023/08/31 07:38:06;;;;;;;998.08;892.58;;;14.90;99.90;;;;;;5084217;28;20070;-87
2023/08/31 07:40:32;;;;;;;968.90;875.03;;;15.10;99.90;;;;;;5067264;28;20411;-85
2023/08/31 07:42:57;;;;;;;1034.80;925.42;;;15.10;99.90;;;;;;5051171;28;20076;-85
2023/08/31 07:45:23;;;;;;;979.20;880.50;;;15.20;99.90;;;;;;5066707;28;20075;-85
2023/08/31 07:47:49;;;;;;;936.47;851.22;;;15.30;99.90;;;;;;5063806;28;20059;-85
2023/08/31 07:50:15;;;;;;;942.83;857.33;;;15.40;99.90;;;;;;5049900;28;20512;-84
2023/08/31 07:52:40;;;;;;;931.25;845.60;;;15.40;99.90;;;;;;5051696;28;20040;-85
2023/08/31 07:55:06;;;;;;;901.38;821.17;;;15.50;99.90;;;;;;5086716;28;20044;-84
2023/08/31 07:57:32;;;;;;;932.92;845.03;;;15.70;99.90;;;;;;5052496;28;20131;-85
2023/08/31 07:59:57;;;;;;;954.15;866.42;;;15.70;99.90;;;;;;5068385;28;20044;-85
2023/08/31 08:02:23;;;;;;;911.88;827.20;;;15.80;99.90;;;;;;5051974;28;20040;-85
2023/08/31 08:04:49;;;;;;;920.47;835.60;;;15.90;99.90;;;;;;5068734;28;20047;-85
2023/08/31 08:07:15;;;;;;;911.53;825.88;;;16.10;99.90;;;;;;5037639;28;20055;-85
2023/08/31 08:09:41;;;;;;;909.53;828.90;;;16.10;99.90;;;;;;5080116;28;20047;-86
2023/08/31 08:12:07;;;;;;;640.95;585.65;;;16.20;99.90;;;;;;5086237;28;20048;-85
2023/08/31 08:14:33;;;;;;;513.92;464.63;;;16.20;99.90;;;;;;5050683;28;20124;-86
2023/08/31 08:16:59;;;;;;;595.75;539.55;;;16.30;99.90;;;;;;5052851;28;20479;-86
2023/08/31 08:19:25;;;;;;;642.55;586.03;;;16.30;99.90;;;;;;5069189;28;20134;-85
2023/08/31 08:21:51;;;;;;;843.60;772.33;;;16.40;99.90;;;;;;5084807;28;20209;-86
2023/08/31 08:24:17;;;;;;;371.48;341.63;;;16.50;99.90;;;;;;5085341;28;20495;-86
2023/08/31 08:26:43;;;;;;;563.33;518.55;;;16.50;99.90;;;;;;5084883;28;20153;-85
2023/08/31 08:29:09;;;;;;;713.20;649.70;;;16.60;99.90;;;;;;5049333;28;20477;-84
2023/08/31 08:31:34;;;;;;;593.38;538.97;;;16.60;99.90;;;;;;5063837;28;20115;-85
2023/08/31 08:34:01;;;;;;;539.28;492.60;;;16.70;99.90;;;;;;5085830;28;20040;-85
2023/08/31 08:36:27;;;;;;;812.83;740.85;;;16.80;99.90;;;;;;5095174;28;20036;-85
2023/08/31 08:38:52;;;;;;;848.78;772.17;;;16.80;99.90;;;;;;5086210;28;20062;-84
2023/08/31 08:41:23;;;;;;;870.35;790.75;;;16.90;99.90;;;;;;5072908;28;20504;-85
2023/08/31 08:43:51;;;;;;;856.28;776.65;;;16.90;99.90;;;;;;5079313;28;20072;-85
2023/08/31 08:46:17;;;;;;;820.17;741.90;;;16.90;99.90;;;;;;5091215;28;20068;-84
2023/08/31 08:48:45;;;;;;;868.78;786.47;;;16.90;99.90;;;;;;5061252;28;20686;-85
2023/08/31 08:51:11;;;;;;;878.95;796.65;;;16.90;99.90;;;;;;5082195;28;20040;-85
2023/08/31 08:53:39;;;;;;;820.63;741.88;;;17.00;99.90;;;;;;5075971;28;20480;-85
2023/08/31 08:56:04;;;;;;;851.42;775.95;;;17.20;99.90;;;;;;5072994;28;20066;-85
2023/08/31 08:58:30;;;;;;;783.33;710.17;;;17.30;99.90;;;;;;5092718;28;20040;-85
2023/08/31 09:00:56;;;;;;;632.22;577.10;;;17.30;99.90;;;;;;5081242;28;20044;-85
2023/08/31 09:03:24;;;;;;;656.80;599.45;;;17.30;99.90;;;;;;5071703;28;20036;-85
2023/08/31 09:05:50;;;;;;;692.20;630.42;;;17.30;99.90;;;;;;5075363;28;20061;-86
2023/08/31 09:08:16;;;;;;;399.25;363.40;;;17.30;99.90;;;;;;5089031;28;20039;-86
2023/08/31 09:10:43;;;;;;;643.72;587.97;;;17.30;99.90;;;;;;5063714;28;20107;-85
2023/08/31 09:13:15;;;;;;;594.03;541.47;;;17.40;99.90;;;;;;5091268;28;20082;-85
2023/08/31 09:15:48;;;;;;;480.85;437.83;;;17.60;99.90;;;;;;5075078;28;20044;-85
2023/08/31 09:18:28;;;;;;;266.55;241.77;;;17.70;99.90;;;;;;5091364;28;20394;-84
2023/08/31 09:20:58;;;;;;;231.15;211.23;;;17.40;99.90;;;;;;5073301;28;20151;-85
2023/08/31 09:23:24;;;;;;;291.17;265.95;;;16.90;99.90;;;;;;5088345;28;20479;-84
2023/08/31 09:25:55;;;;;;;218.18;199.85;;;16.40;99.90;;;;;;5087435;28;20043;-83
2023/08/31 09:28:23;;;;;;;279.35;254.70;;;16.10;99.90;;;;;;5080540;28;20032;-83
2023/08/31 09:30:50;;;;;;;373.75;343.00;;;15.80;99.90;;;;;;5086961;28;20394;-83
2023/08/31 09:33:18;;;;;;;315.85;289.67;;;15.80;99.90;;;;;;5089099;28;20044;-83
2023/08/31 09:35:59;;;;;;;800.63;726.22;;;15.80;99.90;;;;;;5087729;28;20058;-83
2023/08/31 09:38:25;;;;;;;793.00;716.90;;;16.00;99.90;;;;;;5091198;28;20074;-82
2023/08/31 09:40:51;;;;;;;855.10;783.50;;;16.30;99.90;;;;;;5072676;28;20534;-82
2023/08/31 09:43:21;;;;;;;705.55;647.10;;;16.60;99.90;;;;;;5107949;28;20048;-83
2023/08/31 09:45:47;;;;;;;719.00;657.13;;;16.90;99.90;;;;;;5073268;28;20039;-83
2023/08/31 09:48:15;;;;;;;741.40;678.92;;;17.20;99.90;;;;;;5091770;28;20048;-83
2023/08/31 09:50:43;;;;;;;512.17;473.10;;;17.50;99.90;;;;;;5073123;28;20044;-85
2023/08/31 09:53:10;;;;;;;699.00;641.30;;;17.80;99.90;;;;;;5091081;28;20043;-84
2023/08/31 09:55:40;;;;;;;706.20;649.63;;;18.10;99.90;;;;;;5072815;28;20039;-86
2023/08/31 09:58:07;;;;;;;784.60;713.38;;;18.20;99.90;;;;;;5080707;28;20054;-85
2023/08/31 10:00:36;;;;;;;435.13;397.55;;;18.10;99.90;;;;;;5070319;28;20135;-84
2023/08/31 10:03:06;;;;;;;334.15;308.13;;;17.80;99.90;;;;;;5069054;28;20391;-84
2023/08/31 10:05:32;;;;;;;415.33;381.75;;;17.50;99.90;;;;;;5054771;28;20063;-84
2023/08/31 10:07:59;;;;;;;292.60;270.02;;;17.30;99.90;;;;;;5067413;28;20055;-84
2023/08/31 10:10:28;;;;;;;281.67;261.23;;;17.40;99.90;;;;;;5074111;28;20058;-84
2023/08/31 10:12:54;;;;;;;245.80;221.85;;;17.50;99.90;;;;;;5077198;28;20243;-85
2023/08/31 10:15:20;;;;;;;414.60;372.98;;;17.70;99.90;;;;;;5075754;28;20058;-84
2023/08/31 10:17:46;;;;;;;529.72;479.23;;;17.80;99.90;;;;;;5072556;28;20282;-83
2023/08/31 10:20:15;;;;;;;455.88;414.67;;;17.80;99.90;;;;;;5062042;28;20060;-84
2023/08/31 10:22:41;;;;;;;226.88;207.77;;;17.90;99.90;;;;;;5073884;28;20104;-85
2023/08/31 10:25:08;;;;;;;224.65;205.15;;;17.80;99.90;;;;;;5073968;28;20043;-84
2023/08/31 10:27:47;;;;;;;424.23;384.30;;;17.50;99.90;;;;;;5093330;28;20047;-86
2023/08/31 10:30:21;;;;;;;175.95;160.98;;;17.10;99.90;;;;;;5090712;28;20127;-85
2023/08/31 10:33:09;;;;;;;337.27;305.70;;;16.90;99.90;;;;;;5068293;28;20108;-86
2023/08/31 10:35:47;;;;;;;424.40;385.75;;;16.60;99.90;;;;;;5073521;28;20079;-86
2023/08/31 10:38:26;;;;;;;726.35;662.40;;;16.90;99.90;;;;;;5067244;28;20090;-88
2023/08/31 10:41:07;;;;;;;856.90;780.00;;;17.00;99.90;;;;;;5052902;28;20487;-88
2023/08/31 10:43:53;;;;;;;791.15;723.28;;;17.40;99.90;;;;;;5071485;28;20046;-86
2023/08/31 10:46:34;;;;;;;838.58;764.47;;;17.80;99.90;;;;;;5055283;28;20048;-88
2023/08/31 10:49:36;;;;;;;841.50;763.95;;;18.10;99.90;;;;;;5054483;28;20050;-87
2023/08/31 10:52:19;;;;;;;789.78;720.90;;;18.40;99.90;;;;;;5074866;28;20047;-87
2023/08/31 10:54:54;;;;;;;686.70;625.78;;;18.70;99.90;;;;;;5072231;28;20527;-88
2023/08/31 10:57:29;;;;;;;683.58;621.40;;;19.00;99.90;;;;;;5071941;28;20131;-88
2023/08/31 10:59:55;;;;;;;433.75;394.38;;;19.10;99.90;;;;;;5069044;28;20389;-86
2023/08/31 11:02:47;;;;;;;251.85;232.13;;;19.10;99.90;;;;;;5067026;28;20046;-87
2023/08/31 11:05:14;;;;;;;317.17;290.23;;;18.70;99.90;;;;;;5071723;28;20058;-87
2023/08/31 11:07:47;;;;;;;297.13;271.55;;;18.30;99.90;;;;;;5052215;28;20511;-86
2023/08/31 11:10:27;;;;;;;423.05;385.88;;;17.90;99.90;;;;;;5049418;28;20511;-85
2023/08/31 11:13:03;;;;;;;510.77;462.73;;;17.60;99.90;;;;;;5048621;28;20047;-87
2023/08/31 11:15:45;;;;;;;285.08;259.70;;;17.40;99.90;;;;;;5089811;28;20128;-87
2023/08/31 11:18:12;;;;;;;185.38;168.85;;;17.30;99.90;;;;;;5088318;28;20040;-86
2023/08/31 11:20:44;;;;;;;637.88;578.80;;;17.40;99.90;;;;;;5054983;28;20040;-86
2023/08/31 11:23:10;;;;;;;697.58;631.70;;;17.70;99.90;;;;;;5068741;28;20040;-86
2023/08/31 11:25:36;;;;;;;557.10;503.98;;;18.00;99.90;;;;;;5059273;28;20040;-87
2023/08/31 11:28:05;;;;;;;511.05;465.73;;;18.30;99.90;;;;;;5054679;28;20106;-88
2023/08/31 11:30:37;;;;;;;582.20;530.35;;;18.50;99.90;;;;;;5042261;28;20127;-87
2023/08/31 11:33:05;;;;;;;758.05;690.20;;;18.90;99.90;;;;;;5044468;28;20044;-87
2023/08/31 11:35:41;;;;;;;792.25;720.17;;;19.10;99.90;;;;;;5059734;28;20144;-87
2023/08/31 11:38:07;;;;;;;491.05;446.27;;;19.40;99.90;;;;;;5046063;28;20075;-87
2023/08/31 11:40:32;;;;;;;234.73;215.57;;;19.50;99.90;;;;;;5054532;28;20074;-87
2023/08/31 11:43:03;;;;;;;190.55;173.80;;;19.30;99.90;;;;;;5063233;28;20484;-88
2023/08/31 11:45:36;;;;;;;328.05;300.02;;;19.20;99.90;;;;;;5062056;28;20410;-87
2023/08/31 11:48:14;;;;;;;184.93;171.02;;;19.10;99.90;;;;;;5055246;28;20032;-86
2023/08/31 11:50:46;;;;;;;366.33;337.15;;;18.70;99.90;;;;;;5064945;28;20044;-86
2023/08/31 11:53:15;;;;;;;551.80;508.30;;;18.70;99.90;;;;;;5072224;28;20495;-91
2023/08/31 11:55:52;;;;;;;407.33;376.70;;;18.50;99.90;;;;;;5055804;28;20040;-86
2023/08/31 11:58:18;;;;;;;514.38;470.48;;;18.20;99.90;;;;;;5054254;28;20123;-87
2023/08/31 12:00:44;;;;;;;188.43;172.68;;;17.90;99.90;;;;;;5054110;28;20143;-85
2023/08/31 12:03:10;;;;;;;295.13;272.52;;;17.40;99.90;;;;;;5070617;28;20040;-85
2023/08/31 12:05:46;;;;;;;502.67;462.80;;;16.70;99.90;;;;;;5069598;28;20475;-86